sensor_id;sensor_type;location;lat;lon;timestamp;pressure;altitude;pressure_sealevel;temperature;humidity
57900;BME280;60605;53.716;19.940;2022-08-03T00:00:12;100633.06;;;15.84;93.46
57900;BME280;60605;53.716;19.940;2022-08-03T00:05:36;100632.38;;;15.77;93.90
57900;BME280;60605;53.716;19.940;2022-08-03T00:10:37;100630.61;;;15.73;93.99
57900;BME280;60605;53.716;19.940;2022-08-03T00:15:40;100632.86;;;15.68;94.18
57900;BME280;60605;53.716;19.940;2022-08-03T00:20:42;100634.66;;;15.65;94.01
57900;BME280;60605;53.716;19.940;2022-08-03T00:25:44;100634.04;;;15.62;94.10
57900;BME280;60605;53.716;19.940;2022-08-03T00:30:46;100638.27;;;15.58;94.04
57900;BME280;60605;53.716;19.940;2022-08-03T00:35:48;100636.98;;;15.53;94.14
57900;BME280;60605;53.716;19.940;2022-08-03T00:40:52;100634.00;;;15.48;94.26
57900;BME280;60605;53.716;19.940;2022-08-03T00:45:54;100636.16;;;15.45;94.36
57900;BME280;60605;53.716;19.940;2022-08-03T00:50:56;100641.98;;;15.41;94.29
57900;BME280;60605;53.716;19.940;2022-08-03T00:55:58;100636.72;;;15.37;94.45
57900;BME280;60605;53.716;19.940;2022-08-03T01:01:00;100636.75;;;15.32;94.47
57900;BME280;60605;53.716;19.940;2022-08-03T01:16:32;100636.71;;;15.18;94.87
57900;BME280;60605;53.716;19.940;2022-08-03T01:31:52;100621.33;;;15.09;95.47
57900;BME280;60605;53.716;19.940;2022-08-03T01:37:18;100623.23;;;15.07;95.68
57900;BME280;60605;53.716;19.940;2022-08-03T01:42:22;100622.39;;;15.03;95.80
57900;BME280;60605;53.716;19.940;2022-08-03T01:47:26;100614.80;;;14.99;96.00
57900;BME280;60605;53.716;19.940;2022-08-03T01:52:28;100614.79;;;14.94;96.19
57900;BME280;60605;53.716;19.940;2022-08-03T01:57:32;100617.77;;;14.89;96.27
57900;BME280;60605;53.716;19.940;2022-08-03T02:02:55;100617.19;;;14.84;96.53
57900;BME280;60605;53.716;19.940;2022-08-03T02:07:59;100610.28;;;14.80;96.72
57900;BME280;60605;53.716;19.940;2022-08-03T02:13:03;100606.96;;;14.76;96.76
57900;BME280;60605;53.716;19.940;2022-08-03T02:31:39;100596.00;;;14.71;97.86
57900;BME280;60605;53.716;19.940;2022-08-03T02:36:44;100598.33;;;14.73;98.03
57900;BME280;60605;53.716;19.940;2022-08-03T02:41:48;100595.98;;;14.78;97.91
57900;BME280;60605;53.716;19.940;2022-08-03T02:46:53;100594.96;;;14.85;97.90
57900;BME280;60605;53.716;19.940;2022-08-03T02:51:55;100595.90;;;14.93;97.67
57900;BME280;60605;53.716;19.940;2022-08-03T02:57:08;100601.45;;;14.96;97.05
57900;BME280;60605;53.716;19.940;2022-08-03T03:06:39;100592.83;;;15.02;96.52
57900;BME280;60605;53.716;19.940;2022-08-03T03:11:44;100595.95;;;15.02;96.10
57900;BME280;60605;53.716;19.940;2022-08-03T03:16:46;100597.59;;;15.03;95.99
57900;BME280;60605;53.716;19.940;2022-08-03T03:22:01;100593.75;;;15.07;95.93
57900;BME280;60605;53.716;19.940;2022-08-03T03:27:04;100592.65;;;15.12;95.73
57900;BME280;60605;53.716;19.940;2022-08-03T03:32:06;100590.30;;;15.18;95.67
57900;BME280;60605;53.716;19.940;2022-08-03T03:37:10;100591.85;;;15.25;95.33
57900;BME280;60605;53.716;19.940;2022-08-03T03:42:12;100594.48;;;15.30;95.07
57900;BME280;60605;53.716;19.940;2022-08-03T03:53:54;100603.80;;;15.45;95.03
57900;BME280;60605;53.716;19.940;2022-08-03T03:58:57;100608.21;;;15.53;94.92
57900;BME280;60605;53.716;19.940;2022-08-03T04:03:59;100614.38;;;15.62;94.80
57900;BME280;60605;53.716;19.940;2022-08-03T04:09:20;100620.59;;;15.70;94.36
57900;BME280;60605;53.716;19.940;2022-08-03T04:14:43;100619.27;;;15.78;94.09
57900;BME280;60605;53.716;19.940;2022-08-03T04:19:51;100629.06;;;15.86;93.91
57900;BME280;60605;53.716;19.940;2022-08-03T04:25:04;100632.70;;;15.93;93.86
57900;BME280;60605;53.716;19.940;2022-08-03T04:30:15;100633.80;;;16.01;93.65
57900;BME280;60605;53.716;19.940;2022-08-03T04:35:18;100639.52;;;16.10;93.41
57900;BME280;60605;53.716;19.940;2022-08-03T04:40:25;100649.78;;;16.18;93.18
57900;BME280;60605;53.716;19.940;2022-08-03T04:45:30;100650.34;;;16.27;92.91
57900;BME280;60605;53.716;19.940;2022-08-03T04:50:38;100654.10;;;16.39;92.72
57900;BME280;60605;53.716;19.940;2022-08-03T04:55:41;100656.45;;;16.59;92.41
57900;BME280;60605;53.716;19.940;2022-08-03T05:00:44;100658.96;;;16.84;91.77
57900;BME280;60605;53.716;19.940;2022-08-03T05:12:00;100665.11;;;17.72;90.56
57900;BME280;60605;53.716;19.940;2022-08-03T05:17:02;100664.92;;;18.35;89.29
57900;BME280;60605;53.716;19.940;2022-08-03T05:22:05;100666.95;;;19.91;88.50
57900;BME280;60605;53.716;19.940;2022-08-03T05:27:10;100668.52;;;21.96;83.38
57900;BME280;60605;53.716;19.940;2022-08-03T06:24:54;100714.08;;;33.74;39.92
57900;BME280;60605;53.716;19.940;2022-08-03T06:44:54;100706.92;;;34.44;40.11
57900;BME280;60605;53.716;19.940;2022-08-03T06:49:58;100710.13;;;35.39;38.35
57900;BME280;60605;53.716;19.940;2022-08-03T06:55:18;100710.44;;;37.01;35.95
57900;BME280;60605;53.716;19.940;2022-08-03T07:00:20;100711.03;;;38.75;31.95
57900;BME280;60605;53.716;19.940;2022-08-03T07:05:22;100713.35;;;39.81;28.68
57900;BME280;60605;53.716;19.940;2022-08-03T07:10:24;100714.09;;;39.30;28.83
57900;BME280;60605;53.716;19.940;2022-08-03T07:15:27;100713.08;;;37.54;29.50
57900;BME280;60605;53.716;19.940;2022-08-03T07:20:49;100716.23;;;36.72;32.13
57900;BME280;60605;53.716;19.940;2022-08-03T07:25:51;100721.54;;;37.81;30.80
57900;BME280;60605;53.716;19.940;2022-08-03T07:30:53;100722.59;;;38.12;30.49
57900;BME280;60605;53.716;19.940;2022-08-03T07:35:55;100719.02;;;39.68;28.35
57900;BME280;60605;53.716;19.940;2022-08-03T07:40:57;100717.48;;;41.49;25.21
57900;BME280;60605;53.716;19.940;2022-08-03T07:45:59;100719.73;;;42.86;24.84
57900;BME280;60605;53.716;19.940;2022-08-03T07:51:01;100715.11;;;43.92;23.15
57900;BME280;60605;53.716;19.940;2022-08-03T07:56:04;100715.37;;;44.08;22.35
57900;BME280;60605;53.716;19.940;2022-08-03T08:01:12;100714.61;;;42.62;22.65
57900;BME280;60605;53.716;19.940;2022-08-03T08:06:16;100709.97;;;40.67;24.27
57900;BME280;60605;53.716;19.940;2022-08-03T08:11:19;100705.47;;;38.99;26.42
57900;BME280;60605;53.716;19.940;2022-08-03T08:16:23;100705.56;;;37.42;28.45
57900;BME280;60605;53.716;19.940;2022-08-03T08:21:25;100706.50;;;36.10;29.54
57900;BME280;60605;53.716;19.940;2022-08-03T08:26:47;100707.63;;;34.85;31.12
57900;BME280;60605;53.716;19.940;2022-08-03T08:31:49;100708.50;;;33.92;32.60
57900;BME280;60605;53.716;19.940;2022-08-03T08:36:51;100705.89;;;33.25;34.02
57900;BME280;60605;53.716;19.940;2022-08-03T08:41:53;100702.46;;;32.87;35.31
57900;BME280;60605;53.716;19.940;2022-08-03T08:46:54;100703.53;;;32.64;35.82
57900;BME280;60605;53.716;19.940;2022-08-03T08:51:57;100700.66;;;33.05;36.07
57900;BME280;60605;53.716;19.940;2022-08-03T08:57:02;100705.92;;;34.23;35.33
57900;BME280;60605;53.716;19.940;2022-08-03T09:02:25;100705.29;;;35.83;32.51
57900;BME280;60605;53.716;19.940;2022-08-03T09:07:29;100710.64;;;37.65;29.53
57900;BME280;60605;53.716;19.940;2022-08-03T09:12:36;100707.42;;;38.23;28.83
57900;BME280;60605;53.716;19.940;2022-08-03T09:17:43;100706.48;;;37.79;28.71
57900;BME280;60605;53.716;19.940;2022-08-03T09:22:52;100712.29;;;37.83;28.71
57900;BME280;60605;53.716;19.940;2022-08-03T09:28:02;100714.05;;;38.81;28.56
57900;BME280;60605;53.716;19.940;2022-08-03T09:33:09;100715.90;;;41.36;24.35
57900;BME280;60605;53.716;19.940;2022-08-03T09:38:16;100712.39;;;41.93;23.39
57900;BME280;60605;53.716;19.940;2022-08-03T09:43:18;100711.05;;;41.15;24.27
57900;BME280;60605;53.716;19.940;2022-08-03T09:48:27;100704.73;;;40.77;24.41
57900;BME280;60605;53.716;19.940;2022-08-03T09:53:30;100700.42;;;39.72;24.61
57900;BME280;60605;53.716;19.940;2022-08-03T09:58:32;100704.36;;;38.42;25.72
57900;BME280;60605;53.716;19.940;2022-08-03T10:03:34;100695.86;;;37.33;27.20
57900;BME280;60605;53.716;19.940;2022-08-03T10:14:06;100689.09;;;35.87;29.31
57900;BME280;60605;53.716;19.940;2022-08-03T10:19:09;100689.16;;;35.20;29.84
57900;BME280;60605;53.716;19.940;2022-08-03T10:24:11;100686.54;;;35.00;30.52
57900;BME280;60605;53.716;19.940;2022-08-03T10:29:21;100681.11;;;35.27;30.03
57900;BME280;60605;53.716;19.940;2022-08-03T10:34:26;100679.90;;;35.17;30.23
57900;BME280;60605;53.716;19.940;2022-08-03T10:39:29;100675.64;;;34.95;30.90
57900;BME280;60605;53.716;19.940;2022-08-03T10:44:32;100671.10;;;34.74;29.48
57900;BME280;60605;53.716;19.940;2022-08-03T10:49:38;100678.50;;;34.29;30.36
57900;BME280;60605;53.716;19.940;2022-08-03T10:54:41;100677.55;;;33.89;31.75
57900;BME280;60605;53.716;19.940;2022-08-03T11:00:04;100671.15;;;33.83;32.19
57900;BME280;60605;53.716;19.940;2022-08-03T11:05:24;100668.79;;;33.96;32.48
57900;BME280;60605;53.716;19.940;2022-08-03T11:10:29;100664.56;;;33.74;32.16
57900;BME280;60605;53.716;19.940;2022-08-03T11:15:32;100658.81;;;33.39;32.40
57900;BME280;60605;53.716;19.940;2022-08-03T11:47:26;100651.52;;;32.62;34.11
57900;BME280;60605;53.716;19.940;2022-08-03T11:52:33;100653.92;;;32.46;32.42
57900;BME280;60605;53.716;19.940;2022-08-03T11:57:37;100648.70;;;32.01;33.76
57900;BME280;60605;53.716;19.940;2022-08-03T12:03:01;100648.63;;;32.08;33.86
57900;BME280;60605;53.716;19.940;2022-08-03T12:08:05;100642.02;;;32.18;33.36
57900;BME280;60605;53.716;19.940;2022-08-03T12:13:09;100636.85;;;32.00;33.17
57900;BME280;60605;53.716;19.940;2022-08-03T12:18:32;100631.71;;;31.71;33.77
57900;BME280;60605;53.716;19.940;2022-08-03T12:23:36;100628.50;;;31.49;34.15
57900;BME280;60605;53.716;19.940;2022-08-03T12:28:46;100626.70;;;31.11;33.38
57900;BME280;60605;53.716;19.940;2022-08-03T12:34:01;100626.85;;;30.75;34.18
57900;BME280;60605;53.716;19.940;2022-08-03T12:39:05;100620.23;;;30.69;33.68
57900;BME280;60605;53.716;19.940;2022-08-03T12:44:09;100611.27;;;30.63;33.96
57900;BME280;60605;53.716;19.940;2022-08-03T12:49:13;100614.70;;;30.60;34.53
57900;BME280;60605;53.716;19.940;2022-08-03T12:54:18;100611.92;;;30.64;34.07
57900;BME280;60605;53.716;19.940;2022-08-03T12:59:27;100609.77;;;30.65;33.17
57900;BME280;60605;53.716;19.940;2022-08-03T13:04:37;100608.33;;;30.66;32.80
57900;BME280;60605;53.716;19.940;2022-08-03T13:09:41;100604.57;;;30.58;33.34
57900;BME280;60605;53.716;19.940;2022-08-03T13:14:49;100603.30;;;30.68;33.61
57900;BME280;60605;53.716;19.940;2022-08-03T13:19:52;100600.88;;;30.74;32.95
57900;BME280;60605;53.716;19.940;2022-08-03T13:24:56;100598.52;;;30.50;33.51
57900;BME280;60605;53.716;19.940;2022-08-03T13:29:59;100597.86;;;30.23;33.45
57900;BME280;60605;53.716;19.940;2022-08-03T13:35:03;100601.00;;;30.08;35.23
57900;BME280;60605;53.716;19.940;2022-08-03T13:40:09;100600.67;;;30.10;35.55
57900;BME280;60605;53.716;19.940;2022-08-03T13:45:16;100599.33;;;30.19;36.26
57900;BME280;60605;53.716;19.940;2022-08-03T13:50:19;100591.95;;;30.21;35.25
57900;BME280;60605;53.716;19.940;2022-08-03T13:55:23;100585.36;;;30.12;34.83
57900;BME280;60605;53.716;19.940;2022-08-03T14:00:27;100587.68;;;30.13;35.37
57900;BME280;60605;53.716;19.940;2022-08-03T14:05:31;100582.42;;;30.15;34.96
57900;BME280;60605;53.716;19.940;2022-08-03T14:10:35;100575.46;;;30.12;35.25
57900;BME280;60605;53.716;19.940;2022-08-03T14:15:39;100577.52;;;30.00;35.69
57900;BME280;60605;53.716;19.940;2022-08-03T14:20:52;100570.88;;;29.97;35.95
57900;BME280;60605;53.716;19.940;2022-08-03T14:25:59;100562.81;;;29.98;36.30
57900;BME280;60605;53.716;19.940;2022-08-03T14:31:02;100556.22;;;29.91;36.25
57900;BME280;60605;53.716;19.940;2022-08-03T14:36:10;100555.20;;;29.87;36.31
57900;BME280;60605;53.716;19.940;2022-08-03T14:41:13;100546.17;;;29.79;36.02
57900;BME280;60605;53.716;19.940;2022-08-03T14:46:21;100542.64;;;29.66;36.30
57900;BME280;60605;53.716;19.940;2022-08-03T14:51:25;100538.92;;;29.59;36.67
57900;BME280;60605;53.716;19.940;2022-08-03T14:56:33;100540.02;;;29.58;36.93
57900;BME280;60605;53.716;19.940;2022-08-03T15:01:37;100541.39;;;29.55;36.47
57900;BME280;60605;53.716;19.940;2022-08-03T15:07:00;100540.30;;;29.44;37.14
57900;BME280;60605;53.716;19.940;2022-08-03T15:12:04;100542.48;;;29.37;37.15
57900;BME280;60605;53.716;19.940;2022-08-03T15:17:08;100543.49;;;29.33;37.50
57900;BME280;60605;53.716;19.940;2022-08-03T15:22:11;100543.02;;;29.27;37.75
57900;BME280;60605;53.716;19.940;2022-08-03T15:27:22;100537.88;;;29.19;37.05
57900;BME280;60605;53.716;19.940;2022-08-03T15:32:26;100535.51;;;29.08;37.31
57900;BME280;60605;53.716;19.940;2022-08-03T15:37:29;100535.99;;;29.06;38.38
57900;BME280;60605;53.716;19.940;2022-08-03T15:42:32;100533.81;;;29.05;37.67
57900;BME280;60605;53.716;19.940;2022-08-03T15:47:36;100529.69;;;29.00;37.16
57900;BME280;60605;53.716;19.940;2022-08-03T15:52:39;100527.46;;;28.99;37.23
57900;BME280;60605;53.716;19.940;2022-08-03T15:57:43;100523.64;;;28.95;38.56
57900;BME280;60605;53.716;19.940;2022-08-03T16:03:07;100519.90;;;28.89;38.82
57900;BME280;60605;53.716;19.940;2022-08-03T16:08:11;100519.91;;;28.83;38.79
57900;BME280;60605;53.716;19.940;2022-08-03T16:13:16;100520.38;;;28.79;38.87
57900;BME280;60605;53.716;19.940;2022-08-03T16:18:19;100517.33;;;28.69;39.05
57900;BME280;60605;53.716;19.940;2022-08-03T16:23:23;100519.14;;;28.62;37.85
57900;BME280;60605;53.716;19.940;2022-08-03T16:28:32;100516.80;;;28.58;37.42
57900;BME280;60605;53.716;19.940;2022-08-03T16:33:37;100513.23;;;28.53;38.07
57900;BME280;60605;53.716;19.940;2022-08-03T16:38:40;100511.30;;;28.44;38.17
57900;BME280;60605;53.716;19.940;2022-08-03T16:43:43;100513.54;;;28.29;38.17
57900;BME280;60605;53.716;19.940;2022-08-03T16:48:46;100510.98;;;28.21;38.06
57900;BME280;60605;53.716;19.940;2022-08-03T16:53:50;100509.77;;;28.15;38.22
57900;BME280;60605;53.716;19.940;2022-08-03T16:59:09;100509.52;;;28.08;38.38
57900;BME280;60605;53.716;19.940;2022-08-03T17:04:12;100510.98;;;28.00;38.88
57900;BME280;60605;53.716;19.940;2022-08-03T17:09:17;100512.73;;;27.92;39.28
57900;BME280;60605;53.716;19.940;2022-08-03T17:14:22;100514.88;;;27.85;39.87
57900;BME280;60605;53.716;19.940;2022-08-03T17:19:31;100515.05;;;27.76;40.25
57900;BME280;60605;53.716;19.940;2022-08-03T17:24:39;100517.71;;;27.67;40.69
57900;BME280;60605;53.716;19.940;2022-08-03T17:29:44;100526.98;;;27.56;41.55
57900;BME280;60605;53.716;19.940;2022-08-03T17:34:49;100524.61;;;27.42;42.11
57900;BME280;60605;53.716;19.940;2022-08-03T17:39:53;100529.23;;;27.27;42.21
57900;BME280;60605;53.716;19.940;2022-08-03T17:45:01;100527.45;;;27.11;42.52
57900;BME280;60605;53.716;19.940;2022-08-03T17:50:08;100532.39;;;26.94;43.62
57900;BME280;60605;53.716;19.940;2022-08-03T17:55:27;100538.73;;;26.72;44.04
57900;BME280;60605;53.716;19.940;2022-08-03T18:00:51;100538.73;;;26.47;44.36
57900;BME280;60605;53.716;19.940;2022-08-03T18:06:38;100545.71;;;26.19;44.79
57900;BME280;60605;53.716;19.940;2022-08-03T18:11:58;100547.44;;;25.91;45.44
57900;BME280;60605;53.716;19.940;2022-08-03T18:17:06;100547.34;;;25.61;46.42
57900;BME280;60605;53.716;19.940;2022-08-03T18:22:12;100553.61;;;25.26;48.05
57900;BME280;60605;53.716;19.940;2022-08-03T18:27:15;100563.33;;;24.89;49.99
57900;BME280;60605;53.716;19.940;2022-08-03T18:32:21;100567.73;;;24.52;52.23
57900;BME280;60605;53.716;19.940;2022-08-03T18:37:27;100566.17;;;24.16;54.59
57900;BME280;60605;53.716;19.940;2022-08-03T18:42:31;100568.20;;;23.80;56.37
57900;BME280;60605;53.716;19.940;2022-08-03T18:58:04;100584.12;;;22.87;59.93
57900;BME280;60605;53.716;19.940;2022-08-03T19:03:23;100580.31;;;22.61;60.93
57900;BME280;60605;53.716;19.940;2022-08-03T19:08:45;100582.44;;;22.36;62.15
57900;BME280;60605;53.716;19.940;2022-08-03T19:13:51;100581.11;;;22.14;63.58
57900;BME280;60605;53.716;19.940;2022-08-03T19:18:58;100579.52;;;21.94;64.66
57900;BME280;60605;53.716;19.940;2022-08-03T19:24:04;100569.72;;;21.78;66.63
57900;BME280;60605;53.716;19.940;2022-08-03T19:29:12;100578.98;;;21.66;68.51
57900;BME280;60605;53.716;19.940;2022-08-03T19:34:18;100577.20;;;21.53;69.59
57900;BME280;60605;53.716;19.940;2022-08-03T19:39:26;100578.55;;;21.40;70.42
57900;BME280;60605;53.716;19.940;2022-08-03T19:44:35;100580.77;;;21.25;71.62
57900;BME280;60605;53.716;19.940;2022-08-03T19:49:44;100589.02;;;21.09;72.32
57900;BME280;60605;53.716;19.940;2022-08-03T19:55:10;100586.63;;;20.91;72.96
57900;BME280;60605;53.716;19.940;2022-08-03T20:00:16;100588.85;;;20.74;73.85
57900;BME280;60605;53.716;19.940;2022-08-03T20:05:34;100591.80;;;20.57;74.47
57900;BME280;60605;53.716;19.940;2022-08-03T20:10:53;100595.92;;;20.41;75.31
57900;BME280;60605;53.716;19.940;2022-08-03T20:15:57;100594.98;;;20.30;75.70
57900;BME280;60605;53.716;19.940;2022-08-03T20:21:05;100595.05;;;20.21;76.42
57900;BME280;60605;53.716;19.940;2022-08-03T20:26:30;100596.79;;;20.15;76.67
57900;BME280;60605;53.716;19.940;2022-08-03T20:31:36;100601.34;;;20.07;76.98
57900;BME280;60605;53.716;19.940;2022-08-03T20:36:39;100598.42;;;19.95;77.70
57900;BME280;60605;53.716;19.940;2022-08-03T20:41:42;100600.63;;;19.79;77.74
57900;BME280;60605;53.716;19.940;2022-08-03T20:46:47;100600.98;;;19.61;78.33
57900;BME280;60605;53.716;19.940;2022-08-03T20:52:02;100607.02;;;19.48;79.07
57900;BME280;60605;53.716;19.940;2022-08-03T20:57:06;100612.69;;;19.36;79.52
57900;BME280;60605;53.716;19.940;2022-08-03T21:02:15;100612.16;;;19.28;79.86
57900;BME280;60605;53.716;19.940;2022-08-03T21:07:54;100618.05;;;19.19;80.42
57900;BME280;60605;53.716;19.940;2022-08-03T21:18:20;100618.77;;;18.99;80.94
57900;BME280;60605;53.716;19.940;2022-08-03T21:23:25;100621.66;;;18.91;81.13
57900;BME280;60605;53.716;19.940;2022-08-03T21:28:50;100620.27;;;18.83;81.38
57900;BME280;60605;53.716;19.940;2022-08-03T21:33:54;100619.73;;;18.75;81.53
57900;BME280;60605;53.716;19.940;2022-08-03T21:38:58;100619.88;;;18.67;82.08
57900;BME280;60605;53.716;19.940;2022-08-03T21:44:03;100628.80;;;18.56;82.88
57900;BME280;60605;53.716;19.940;2022-08-03T21:49:08;100628.98;;;18.46;83.58
57900;BME280;60605;53.716;19.940;2022-08-03T21:54:33;100622.42;;;18.40;84.46
57900;BME280;60605;53.716;19.940;2022-08-03T21:59:37;100615.06;;;18.33;84.99
57900;BME280;60605;53.716;19.940;2022-08-03T22:04:43;100614.71;;;18.27;84.88
57900;BME280;60605;53.716;19.940;2022-08-03T22:09:58;100618.30;;;18.19;84.60
57900;BME280;60605;53.716;19.940;2022-08-03T22:15:03;100621.58;;;18.11;84.76
57900;BME280;60605;53.716;19.940;2022-08-03T22:20:07;100623.35;;;18.01;84.25
57900;BME280;60605;53.716;19.940;2022-08-03T22:25:12;100620.58;;;17.93;84.23
57900;BME280;60605;53.716;19.940;2022-08-03T22:30:17;100620.02;;;17.85;84.32
57900;BME280;60605;53.716;19.940;2022-08-03T22:35:21;100624.55;;;17.77;84.25
57900;BME280;60605;53.716;19.940;2022-08-03T22:40:25;100626.28;;;17.71;84.41
57900;BME280;60605;53.716;19.940;2022-08-03T22:45:29;100628.84;;;17.69;84.56
57900;BME280;60605;53.716;19.940;2022-08-03T22:50:53;100632.98;;;17.66;84.52
57900;BME280;60605;53.716;19.940;2022-08-03T22:55:57;100630.17;;;17.63;84.38
57900;BME280;60605;53.716;19.940;2022-08-03T23:01:02;100631.16;;;17.58;84.21
57900;BME280;60605;53.716;19.940;2022-08-03T23:06:06;100621.58;;;17.52;84.31
57900;BME280;60605;53.716;19.940;2022-08-03T23:11:10;100624.24;;;17.46;84.23
57900;BME280;60605;53.716;19.940;2022-08-03T23:16:14;100626.52;;;17.41;84.02
57900;BME280;60605;53.716;19.940;2022-08-03T23:21:30;100624.83;;;17.34;83.82
57900;BME280;60605;53.716;19.940;2022-08-03T23:26:54;100627.59;;;17.26;83.66
57900;BME280;60605;53.716;19.940;2022-08-03T23:31:58;100630.11;;;17.19;83.66
57900;BME280;60605;53.716;19.940;2022-08-03T23:37:03;100630.73;;;17.10;83.55
57900;BME280;60605;53.716;19.940;2022-08-03T23:42:07;100636.29;;;17.00;83.50
57900;BME280;60605;53.716;19.940;2022-08-03T23:47:11;100634.15;;;16.89;83.57
